Time;durP1;ratioP1;P1;durP2;ratioP2;P2;SDS_P1;SDS_P2;PMS_P1;PMS_P2;Temp;Humidity;BMP_temperature;BMP_pressure;BME280_temperature;BME280_humidity;BME280_pressure;Samples;Min_cycle;Max_cycle;Signal;HPM_P1;HPM_P2
2021/06/11 00:00:48;;;;;;;11.20;7.47;;;;;;;16.93;54.65;98611.28;5059306;28;20025;-71
2021/06/11 00:03:14;;;;;;;11.20;6.78;;;;;;;16.91;54.43;98605.25;5060436;28;20345;-70
2021/06/11 00:05:39;;;;;;;10.93;7.07;;;;;;;16.85;54.47;98599.09;5065905;28;20575;-70
2021/06/11 00:08:05;;;;;;;11.55;7.00;;;;;;;16.78;54.38;98596.03;5067518;28;20481;-71
2021/06/11 00:10:31;;;;;;;7.97;6.47;;;;;;;16.75;54.63;98597.50;5067216;28;20025;-71
2021/06/11 00:12:57;;;;;;;13.90;7.88;;;;;;;16.72;54.52;98591.84;5066256;28;20020;-71
2021/06/11 00:15:24;;;;;;;12.30;7.43;;;;;;;16.71;54.48;98593.00;5066350;28;20103;-71
2021/06/11 00:17:50;;;;;;;13.32;7.35;;;;;;;16.69;54.74;98592.50;5068247;28;20036;-70
2021/06/11 00:20:16;;;;;;;17.30;7.05;;;;;;;16.67;54.49;98595.63;5060827;28;20748;-71
2021/06/11 00:22:41;;;;;;;12.13;8.00;;;;;;;16.63;54.65;98598.22;5057678;28;20034;-70
2021/06/11 00:25:09;;;;;;;9.77;7.35;;;;;;;16.60;54.95;98596.13;5059799;28;20028;-70
2021/06/11 00:27:35;;;;;;;10.68;7.72;;;;;;;16.57;54.83;98598.75;5070017;28;20383;-70
2021/06/11 00:30:02;;;;;;;12.38;7.97;;;;;;;16.53;55.00;98598.59;5066988;28;20472;-70
2021/06/11 00:32:28;;;;;;;17.63;8.40;;;;;;;16.49;55.10;98601.22;5066744;28;20055;-70
2021/06/11 00:34:53;;;;;;;11.32;7.15;;;;;;;16.47;55.01;98605.50;5065776;28;20083;-70
2021/06/11 00:37:18;;;;;;;11.60;7.55;;;;;;;16.41;55.07;98599.31;5065319;28;20101;-70
2021/06/11 00:39:44;;;;;;;12.40;7.70;;;;;;;16.35;55.24;98598.69;5068340;28;20021;-70
2021/06/11 00:42:09;;;;;;;12.73;8.45;;;;;;;16.31;55.12;98602.44;5059644;28;20630;-71
2021/06/11 00:44:34;;;;;;;15.05;7.75;;;;;;;16.26;55.48;98597.09;5056106;28;20376;-70
2021/06/11 00:47:00;;;;;;;11.55;7.28;;;;;;;16.21;55.05;98604.44;5061989;28;20103;-70
2021/06/11 00:49:25;;;;;;;13.20;7.72;;;;;;;16.18;55.15;98599.56;5065290;28;20047;-70
2021/06/11 00:51:51;;;;;;;12.75;7.60;;;;;;;16.14;55.56;98601.34;5066660;28;20076;-71
2021/06/11 00:54:17;;;;;;;13.15;7.80;;;;;;;16.11;55.56;98590.13;5065210;28;20384;-70
2021/06/11 00:56:42;;;;;;;13.18;8.02;;;;;;;16.09;55.57;98597.97;5063781;28;20024;-70
2021/06/11 00:59:09;;;;;;;12.82;8.02;;;;;;;16.07;55.54;98604.66;5060956;28;20117;-71
2021/06/11 01:01:34;;;;;;;14.65;8.43;;;;;;;16.05;55.45;98606.09;5062155;28;20020;-70
2021/06/11 01:04:00;;;;;;;12.68;7.15;;;;;;;16.01;55.53;98596.81;5057577;28;20031;-71
2021/06/11 01:06:26;;;;;;;12.20;8.27;;;;;;;15.97;55.76;98596.69;5057276;28;20035;-70
2021/06/11 01:08:53;;;;;;;14.75;8.43;;;;;;;15.95;55.72;98603.66;5064872;28;20031;-70
2021/06/11 01:11:18;;;;;;;13.30;8.05;;;;;;;15.94;56.14;98602.88;5063711;28;20032;-70
2021/06/11 01:13:44;;;;;;;14.57;8.35;;;;;;;15.92;55.90;98597.66;5067136;28;20028;-70
2021/06/11 01:16:10;;;;;;;15.70;9.10;;;;;;;15.93;55.87;98601.25;5068740;28;20017;-70
2021/06/11 01:18:36;;;;;;;14.77;8.75;;;;;;;15.90;56.13;98599.13;5064217;28;20929;-70
2021/06/11 01:21:01;;;;;;;15.13;8.85;;;;;;;15.89;56.31;98590.03;5044139;28;20687;-70
2021/06/11 01:23:39;;;;;;;14.90;8.73;;;;;;;15.87;56.38;98594.25;5054463;28;20067;-70
2021/06/11 01:26:30;;;;;;;16.98;9.10;;;;;;;15.83;55.93;98587.72;5056086;28;20051;-70
2021/06/11 01:29:03;;;;;;;17.95;10.23;;;;;;;15.77;56.36;98587.88;5060153;28;20135;-70
2021/06/11 01:31:30;;;;;;;17.15;10.13;;;;;;;15.74;56.34;98593.28;5063012;28;20030;-70
2021/06/11 01:34:02;;;;;;;17.02;9.65;;;;;;;15.73;56.72;98592.44;5063540;28;20044;-70
2021/06/11 01:36:39;;;;;;;17.80;10.18;;;;;;;15.73;56.67;98584.16;5064404;28;20035;-70
2021/06/11 01:39:06;;;;;;;18.05;9.70;;;;;;;15.71;56.88;98588.41;5063421;28;20101;-70
2021/06/11 01:41:33;;;;;;;15.95;10.18;;;;;;;15.68;56.82;98587.13;5061110;28;20037;-70
2021/06/11 01:43:59;;;;;;;19.73;10.13;;;;;;;15.65;56.98;98581.41;5059220;28;20737;-70
2021/06/11 01:46:27;;;;;;;21.83;10.35;;;;;;;15.60;56.76;98582.41;5058548;28;20081;-71
2021/06/11 01:48:54;;;;;;;18.20;9.60;;;;;;;15.58;57.23;98573.63;5056091;28;20027;-70
2021/06/11 01:51:20;;;;;;;18.65;10.77;;;;;;;15.55;57.11;98577.84;5064470;28;20044;-71
2021/06/11 01:53:47;;;;;;;19.40;10.70;;;;;;;15.51;57.17;98576.84;5065346;28;20241;-70
2021/06/11 01:56:16;;;;;;;18.80;11.20;;;;;;;15.51;57.32;98576.06;5066159;28;20755;-70
2021/06/11 01:58:42;;;;;;;21.85;11.68;;;;;;;15.47;57.46;98576.72;5067653;28;20036;-70
2021/06/11 02:01:10;;;;;;;20.20;11.90;;;;;;;15.47;57.47;98575.91;5064388;28;20054;-70
2021/06/11 02:03:37;;;;;;;15.65;10.45;;;;;;;15.46;57.90;98582.59;5068330;28;20032;-70
2021/06/11 02:06:03;;;;;;;17.42;10.02;;;;;;;15.44;57.74;98573.81;5056868;28;20020;-71
2021/06/11 02:08:29;;;;;;;19.90;10.90;;;;;;;15.44;57.98;98582.09;5054914;28;20873;-70
2021/06/11 02:10:56;;;;;;;21.90;11.00;;;;;;;15.43;57.75;98581.25;5063245;28;20021;-71
2021/06/11 02:13:22;;;;;;;19.42;10.88;;;;;;;15.44;57.79;98582.09;5064647;28;20032;-70
2021/06/11 02:15:49;;;;;;;21.58;11.35;;;;;;;15.43;57.98;98583.22;5064142;28;20046;-71
2021/06/11 02:18:14;;;;;;;18.85;11.40;;;;;;;15.41;58.61;98579.97;5065974;28;20034;-70
2021/06/11 02:20:41;;;;;;;19.90;11.25;;;;;;;15.40;58.66;98583.88;5067208;28;20465;-70
2021/06/11 02:23:06;;;;;;;20.45;11.10;;;;;;;15.42;58.89;98582.41;5064251;28;20924;-71
2021/06/11 02:25:32;;;;;;;19.40;12.18;;;;;;;15.43;58.67;98581.25;5061922;28;20020;-69
2021/06/11 02:27:58;;;;;;;21.65;11.85;;;;;;;15.47;58.96;98578.69;5054782;28;20056;-70
2021/06/11 02:30:25;;;;;;;19.90;12.32;;;;;;;15.50;59.15;98582.72;5058076;28;20634;-71
2021/06/11 02:32:50;;;;;;;21.38;12.02;;;;;;;15.52;59.20;98580.44;5064614;28;20099;-70
2021/06/11 02:35:19;;;;;;;17.77;11.43;;;;;;;15.52;59.14;98580.44;5064424;28;20020;-71
2021/06/11 02:37:46;;;;;;;20.25;12.55;;;;;;;15.53;59.08;98582.88;5064368;28;20024;-69
2021/06/11 02:40:13;;;;;;;19.67;11.82;;;;;;;15.52;59.14;98575.72;5066196;28;20027;-70
2021/06/11 02:42:39;;;;;;;19.00;11.60;;;;;;;15.52;59.03;98580.44;5065338;28;20024;-69
2021/06/11 02:45:08;;;;;;;19.05;12.30;;;;;;;15.51;59.26;98573.28;5064316;28;20025;-70
2021/06/11 02:47:45;;;;;;;21.02;12.82;;;;;;;15.50;58.78;98578.00;5059487;28;20028;-69
2021/06/11 02:50:15;;;;;;;21.58;12.25;;;;;;;15.50;58.77;98578.00;5054764;28;20013;-70
2021/06/11 02:52:45;;;;;;;22.17;12.30;;;;;;;15.51;58.93;98584.34;5059160;28;20028;-69
2021/06/11 02:55:14;;;;;;;22.42;12.05;;;;;;;15.49;59.05;98579.13;5063892;28;20028;-70
2021/06/11 02:57:58;;;;;;;22.75;12.52;;;;;;;15.46;58.75;98582.59;5064360;28;20082;-70
2021/06/11 03:00:27;;;;;;;19.63;12.40;;;;;;;15.42;58.90;98579.63;5068652;28;20017;-70
2021/06/11 03:02:57;;;;;;;20.38;12.65;;;;;;;15.42;59.22;98576.88;5070279;28;20017;-70
2021/06/11 03:05:24;;;;;;;21.52;12.05;;;;;;;15.42;59.29;98576.88;5068209;28;20024;-69
2021/06/11 03:07:54;;;;;;;24.10;13.15;;;;;;;15.43;59.39;98580.47;5064478;28;20403;-69
2021/06/11 03:10:21;;;;;;;;;;;;;;;15.44;59.38;98582.88;5061510;28;20023;-70
2021/06/11 03:12:47;;;;;;;24.42;13.88;;;;;;;15.45;59.18;98580.94;5040830;28;19917;-70
2021/06/11 03:15:13;;;;;;;23.40;12.98;;;;;;;15.43;59.55;98581.25;5066502;28;20102;-70
2021/06/11 03:17:52;;;;;;;22.10;12.68;;;;;;;15.42;59.45;98585.16;5066905;28;20024;-69
2021/06/11 03:20:22;;;;;;;22.98;13.30;;;;;;;15.45;59.89;98589.25;5068164;28;20067;-69
2021/06/11 03:23:00;;;;;;;25.60;13.98;;;;;;;15.46;59.79;98585.34;5067906;28;20099;-70
2021/06/11 03:25:30;;;;;;;24.98;12.80;;;;;;;15.50;60.20;98585.50;5068784;28;20406;-70
2021/06/11 03:28:02;;;;;;;25.73;13.82;;;;;;;15.54;60.19;98592.78;5084349;28;20035;-69
2021/06/11 03:30:29;;;;;;;24.73;14.23;;;;;;;15.60;60.18;98593.47;5064954;28;20468;-70
2021/06/11 03:33:07;;;;;;;31.65;15.30;;;;;;;15.65;60.37;98593.28;5060969;28;20123;-68
2021/06/11 03:35:37;;;;;;;27.20;15.85;;;;;;;15.67;60.24;98591.03;5067219;28;20389;-69
2021/06/11 03:38:07;;;;;;;28.33;15.93;;;;;;;15.67;60.19;98595.72;5069013;28;20027;-69
2021/06/11 03:40:37;;;;;;;29.67;16.17;;;;;;;15.66;60.11;98596.84;5067512;28;20443;-70
2021/06/11 03:43:03;;;;;;;;;;;;;;;15.69;60.30;98598.97;5068287;28;20548;-69
2021/06/11 03:45:29;;;;;;;27.48;14.77;;;;;;;15.70;60.54;98595.06;5049430;28;19912;-70
2021/06/11 03:48:00;;;;;;;24.52;14.75;;;;;;;15.71;60.68;98599.47;5072111;28;20031;-70
2021/06/11 03:50:27;;;;;;;26.75;14.63;;;;;;;15.74;60.50;98596.03;5063265;28;20055;-69
2021/06/11 03:52:57;;;;;;;20.88;12.27;;;;;;;15.74;60.56;98599.59;5060749;28;20119;-69
2021/06/11 03:55:26;;;;;;;20.02;12.88;;;;;;;15.79;60.79;98590.34;5082484;28;20158;-69
2021/06/11 03:57:55;;;;;;;22.25;12.57;;;;;;;15.85;60.76;98591.81;5073994;28;20032;-69
2021/06/11 04:00:24;;;;;;;19.63;12.55;;;;;;;15.92;60.97;98607.91;5093264;28;20099;-69
2021/06/11 04:02:50;;;;;;;20.48;12.93;;;;;;;15.95;61.51;98606.44;5094107;28;20333;-68
2021/06/11 04:05:15;;;;;;;24.50;14.57;;;;;;;15.93;61.37;98610.34;5093844;28;20073;-69
2021/06/11 04:07:46;;;;;;;21.23;13.10;;;;;;;15.94;61.43;98602.88;5093890;28;20024;-69
2021/06/11 04:10:34;;;;;;;21.52;12.60;;;;;;;15.99;61.57;98604.66;5090407;28;20020;-69
2021/06/11 04:13:26;;;;;;;22.63;12.88;;;;;;;16.04;61.34;98601.69;5092266;28;20035;-70
2021/06/11 04:15:54;;;;;;;20.50;12.73;;;;;;;16.11;61.52;98598.41;5088662;28;20111;-70
2021/06/11 04:18:29;;;;;;;25.40;14.35;;;;;;;16.16;61.55;98590.78;5093279;28;20043;-70
2021/06/11 04:20:58;;;;;;;25.50;14.45;;;;;;;16.21;61.73;98592.53;5091371;28;20064;-70
2021/06/11 04:23:27;;;;;;;23.40;13.88;;;;;;;16.25;61.64;98592.72;5093177;28;20384;-70
2021/06/11 04:25:56;;;;;;;25.80;14.63;;;;;;;16.30;61.30;98593.31;5092845;28;20020;-70
2021/06/11 04:28:25;;;;;;;21.58;12.98;;;;;;;16.32;61.60;98595.75;5093331;28;20027;-69
2021/06/11 04:30:52;;;;;;;21.73;13.63;;;;;;;16.36;61.44;98586.47;5092922;28;20020;-70
2021/06/11 04:33:26;;;;;;;27.13;15.30;;;;;;;16.43;61.34;98591.47;5093166;28;20046;-70
2021/06/11 04:35:51;;;;;;;32.40;17.42;;;;;;;16.49;61.83;98592.94;5090565;28;20553;-70
2021/06/11 04:38:18;;;;;;;35.75;19.10;;;;;;;16.54;61.52;98591.91;5092832;28;20472;-70
2021/06/11 04:40:44;;;;;;;30.30;17.02;;;;;;;16.59;61.21;98596.47;5092974;28;20024;-69
2021/06/11 04:43:10;;;;;;;27.27;16.45;;;;;;;16.63;61.35;98597.44;5092877;28;20040;-70
2021/06/11 04:45:35;;;;;;;35.28;19.08;;;;;;;16.66;61.65;98600.34;5092748;28;20173;-70
2021/06/11 04:48:01;;;;;;;33.40;17.88;;;;;;;16.72;61.61;98592.63;5092731;28;20028;-70
2021/06/11 04:50:27;;;;;;;24.90;14.88;;;;;;;16.79;61.33;98595.69;5092466;28;20115;-70
2021/06/11 04:52:53;;;;;;;22.25;13.75;;;;;;;16.85;61.34;98601.88;5092603;28;20023;-70
2021/06/11 04:55:18;;;;;;;23.50;13.52;;;;;;;16.93;61.60;98598.22;5092517;28;20107;-70
2021/06/11 04:57:44;;;;;;;23.15;13.80;;;;;;;17.00;61.47;98603.28;5092447;28;20371;-70
2021/06/11 05:00:10;;;;;;;25.48;14.20;;;;;;;17.05;61.13;98599.50;5092537;28;20027;-70
2021/06/11 05:02:36;;;;;;;23.60;13.57;;;;;;;17.10;61.14;98600.13;5093160;28;20020;-70
2021/06/11 05:05:02;;;;;;;21.20;12.43;;;;;;;17.14;60.93;98600.25;5093651;28;20024;-70
2021/06/11 05:07:27;;;;;;;22.83;12.40;;;;;;;17.16;61.03;98597.97;5093452;28;20475;-70
2021/06/11 05:09:52;;;;;;;21.08;13.00;;;;;;;17.17;60.94;98599.56;5093292;28;20085;-70
2021/06/11 05:12:18;;;;;;;24.48;13.20;;;;;;;17.22;60.90;98601.31;5093823;28;20035;-69
2021/06/11 05:14:44;;;;;;;20.55;13.00;;;;;;;17.25;60.90;98607.03;5093391;28;20031;-70
2021/06/11 05:17:09;;;;;;;24.02;14.15;;;;;;;17.30;61.29;98600.47;5093529;28;20476;-70
2021/06/11 05:19:35;;;;;;;27.42;12.48;;;;;;;17.33;60.94;98605.31;5093394;28;20017;-70
2021/06/11 05:22:00;;;;;;;21.98;13.25;;;;;;;17.36;61.10;98604.66;5092967;28;20103;-70
2021/06/11 05:24:26;;;;;;;24.38;13.23;;;;;;;17.36;60.97;98603.81;5093438;28;20020;-70
2021/06/11 05:26:51;;;;;;;29.90;14.75;;;;;;;17.40;61.08;98605.59;5093014;28;20024;-70
2021/06/11 05:29:16;;;;;;;22.60;12.85;;;;;;;17.46;61.18;98614.53;5093106;28;20020;-70
2021/06/11 05:31:42;;;;;;;24.27;13.57;;;;;;;17.47;61.03;98612.56;5093205;28;20020;-69
2021/06/11 05:34:08;;;;;;;25.58;13.27;;;;;;;17.44;61.64;98616.81;5093037;28;20032;-68
2021/06/11 05:36:33;;;;;;;27.83;13.80;;;;;;;17.49;61.37;98618.59;5093106;28;20069;-68
2021/06/11 05:38:59;;;;;;;24.67;12.98;;;;;;;17.56;61.48;98618.84;5092980;28;20030;-68
2021/06/11 05:41:24;;;;;;;26.30;14.07;;;;;;;17.61;61.49;98621.41;5092734;28;20128;-68
2021/06/11 05:43:51;;;;;;;25.73;13.95;;;;;;;17.68;61.51;98615.34;5092902;28;20027;-69
2021/06/11 05:46:17;;;;;;;28.98;14.05;;;;;;;17.75;61.45;98621.13;5092960;28;20103;-69
2021/06/11 05:48:43;;;;;;;27.23;13.07;;;;;;;17.80;61.37;98614.56;5092857;28;20108;-69
2021/06/11 05:51:08;;;;;;;24.33;14.05;;;;;;;17.86;61.38;98615.97;5092586;28;20044;-68
2021/06/11 05:53:35;;;;;;;23.98;14.48;;;;;;;17.96;61.29;98623.06;5092651;28;20107;-69
2021/06/11 05:56:01;;;;;;;22.55;13.43;;;;;;;18.04;61.14;98613.03;5092709;28;20024;-69
2021/06/11 05:58:27;;;;;;;23.38;13.55;;;;;;;18.11;61.11;98607.75;5093021;28;20353;-69
2021/06/11 06:00:52;;;;;;;23.48;13.27;;;;;;;18.12;61.23;98615.75;5092773;28;20036;-69
2021/06/11 06:03:17;;;;;;;24.15;13.23;;;;;;;18.12;61.19;98610.19;5092941;28;20027;-69
2021/06/11 06:05:43;;;;;;;24.95;13.98;;;;;;;18.12;61.15;98607.44;5092481;28;20016;-69
2021/06/11 06:08:08;;;;;;;19.65;12.68;;;;;;;18.19;60.86;98612.41;5092519;28;20056;-69
2021/06/11 06:10:33;;;;;;;21.23;13.45;;;;;;;18.22;61.01;98616.44;5092629;28;20551;-69
2021/06/11 06:12:59;;;;;;;22.05;13.20;;;;;;;18.31;60.85;98611.59;5092234;28;20036;-69
2021/06/11 06:15:24;;;;;;;20.77;13.20;;;;;;;18.41;60.91;98602.00;5092394;28;20038;-68
2021/06/11 06:17:49;;;;;;;23.45;12.40;;;;;;;18.47;61.03;98610.94;5092432;28;20414;-68
2021/06/11 06:20:15;;;;;;;23.38;13.15;;;;;;;18.50;60.88;98610.25;5092513;28;20048;-68
2021/06/11 06:22:42;;;;;;;23.33;13.25;;;;;;;18.54;60.84;98605.63;5092492;28;20059;-69
2021/06/11 06:25:09;;;;;;;26.48;13.77;;;;;;;18.60;60.87;98605.06;5092178;28;20024;-68
2021/06/11 06:27:36;;;;;;;29.20;13.02;;;;;;;18.71;60.70;98599.84;5075299;28;20027;-68
2021/06/11 06:30:04;;;;;;;24.38;13.30;;;;;;;18.81;60.68;98595.78;5102723;28;20051;-69
2021/06/11 06:32:30;;;;;;;25.95;13.48;;;;;;;18.92;60.73;98598.91;5093791;28;20063;-68
2021/06/11 06:34:57;;;;;;;19.88;12.90;;;;;;;19.02;60.56;98598.44;5102377;28;20063;-68
2021/06/11 06:37:23;;;;;;;24.15;13.85;;;;;;;19.13;60.40;98597.97;5112649;28;20020;-67
2021/06/11 06:39:49;;;;;;;21.33;13.05;;;;;;;19.18;60.17;98600.53;5105970;28;20024;-66
2021/06/11 06:42:15;;;;;;;21.17;12.80;;;;;;;19.22;59.92;98593.09;5091559;28;20016;-67
2021/06/11 06:44:40;;;;;;;21.52;12.73;;;;;;;19.29;59.69;98600.84;5097308;28;20024;-68
2021/06/11 06:47:06;;;;;;;20.02;12.00;;;;;;;19.31;59.46;98592.97;5096027;28;20031;-67
2021/06/11 06:49:34;;;;;;;21.17;12.70;;;;;;;19.39;59.58;98597.56;5096290;28;20036;-67
2021/06/11 06:52:00;;;;;;;20.48;13.40;;;;;;;19.51;59.54;98602.28;5094223;28;20071;-68
2021/06/11 06:54:26;;;;;;;19.77;11.82;;;;;;;19.61;59.46;98598.19;5094997;28;20475;-67
2021/06/11 06:56:51;;;;;;;19.48;12.35;;;;;;;19.69;59.13;98602.00;5095369;28;20038;-67
2021/06/11 06:59:20;;;;;;;17.13;11.75;;;;;;;19.73;58.48;98597.34;5092656;28;20111;-68
2021/06/11 07:01:45;;;;;;;18.80;12.38;;;;;;;;;;5094909;28;20049;-68
2021/06/11 07:04:10;;;;;;;20.02;12.07;;;;;;;19.86;58.66;98598.09;5097398;28;20563;-69
2021/06/11 07:06:36;;;;;;;20.95;13.02;;;;;;;19.91;58.34;98600.66;5096501;28;20028;-67
2021/06/11 07:09:01;;;;;;;20.95;12.48;;;;;;;19.96;58.00;98599.59;5095324;28;20024;-67
2021/06/11 07:11:26;;;;;;;22.40;13.32;;;;;;;20.02;58.01;98609.31;5096200;28;20069;-67
2021/06/11 07:13:52;;;;;;;20.38;13.35;;;;;;;20.05;58.19;98600.25;5096514;28;20028;-67
2021/06/11 07:16:17;;;;;;;21.42;12.32;;;;;;;20.12;57.89;98603.22;5095644;28;20024;-67
2021/06/11 07:18:43;;;;;;;28.42;12.98;;;;;;;20.16;57.93;98606.91;5095135;28;20023;-67
2021/06/11 07:21:10;;;;;;;65.38;35.83;;;;;;;20.19;57.48;98605.38;5094232;28;20100;-68
2021/06/11 07:23:35;;;;;;;24.42;14.05;;;;;;;20.25;57.39;98597.56;5097328;28;20039;-67
2021/06/11 07:26:08;;;;;;;23.02;12.93;;;;;;;20.27;57.27;98596.03;5094484;28;20023;-67
2021/06/11 07:28:37;;;;;;;16.45;11.43;;;;;;;20.33;57.27;98602.97;5094059;28;20024;-67
2021/06/11 07:31:07;;;;;;;18.98;11.35;;;;;;;20.42;56.99;98600.00;5095624;28;20472;-67
2021/06/11 07:33:33;;;;;;;17.42;10.80;;;;;;;20.52;56.56;98607.84;5095777;28;20111;-68
2021/06/11 07:35:59;;;;;;;15.63;9.85;;;;;;;20.58;55.15;98610.34;5094741;28;20543;-67
2021/06/11 07:38:25;;;;;;;18.75;10.75;;;;;;;20.62;55.24;98602.84;5094269;28;20024;-67
2021/06/11 07:40:53;;;;;;;13.73;9.98;;;;;;;20.67;55.11;98600.63;5097030;28;20074;-67
2021/06/11 07:43:20;;;;;;;18.52;10.77;;;;;;;20.74;55.10;98594.41;5093611;28;20020;-67
2021/06/11 07:45:46;;;;;;;14.98;9.77;;;;;;;20.82;54.89;98601.81;5096064;28;20038;-68
2021/06/11 07:48:11;;;;;;;14.77;10.20;;;;;;;20.89;54.24;98603.16;5099386;28;20028;-67
2021/06/11 07:50:36;;;;;;;13.30;8.85;;;;;;;20.92;53.64;98603.22;5094404;28;20118;-67
2021/06/11 07:53:02;;;;;;;14.50;8.85;;;;;;;20.94;53.27;98603.69;5094375;28;20745;-70
2021/06/11 07:55:27;;;;;;;16.55;10.23;;;;;;;20.97;52.80;98607.72;5094505;28;20384;-69
2021/06/11 07:57:53;;;;;;;14.35;9.75;;;;;;;21.03;52.94;98600.69;5094320;28;20053;-67
2021/06/11 08:00:19;;;;;;;17.77;10.35;;;;;;;21.13;53.35;98593.75;5093544;28;20036;-68
2021/06/11 08:02:44;;;;;;;15.27;9.73;;;;;;;21.24;53.69;98596.78;5093587;28;20043;-68
2021/06/11 08:05:10;;;;;;;15.35;9.90;;;;;;;21.32;52.99;98592.16;5093634;28;20463;-67
2021/06/11 08:07:36;;;;;;;17.75;10.85;;;;;;;21.37;52.84;98581.53;5097555;28;20051;-66
2021/06/11 08:10:03;;;;;;;14.05;9.55;;;;;;;21.47;52.69;98585.72;5093248;28;20028;-67
2021/06/11 08:12:29;;;;;;;13.35;8.65;;;;;;;21.55;51.91;98581.06;5093090;28;20028;-67
2021/06/11 08:14:54;;;;;;;13.48;8.85;;;;;;;21.63;51.74;98584.84;5092891;28;20093;-67
2021/06/11 08:17:20;;;;;;;12.73;8.95;;;;;;;21.69;51.44;98584.19;5093025;28;20107;-67
2021/06/11 08:19:45;;;;;;;16.65;9.77;;;;;;;21.77;51.32;98590.72;5093084;28;20548;-66
2021/06/11 08:22:10;;;;;;;15.73;10.35;;;;;;;21.90;51.61;98585.00;5090857;28;20052;-67
2021/06/11 08:24:36;;;;;;;15.73;9.93;;;;;;;22.01;51.50;98584.00;5075480;28;20100;-66
2021/06/11 08:27:01;;;;;;;17.75;10.68;;;;;;;22.18;51.52;98573.53;5093269;28;20480;-67
2021/06/11 08:29:27;;;;;;;14.85;9.88;;;;;;;22.31;51.24;98586.13;5091893;28;20106;-67
2021/06/11 08:31:53;;;;;;;11.90;9.60;;;;;;;22.41;50.34;98581.09;5091492;28;20487;-67
2021/06/11 08:34:19;;;;;;;16.75;10.25;;;;;;;22.50;50.26;98578.09;5089549;28;20032;-67
2021/06/11 08:36:46;;;;;;;14.77;10.45;;;;;;;22.56;50.05;98583.00;5091437;28;20035;-67
2021/06/11 08:39:11;;;;;;;14.10;10.45;;;;;;;22.58;49.78;98574.22;5089124;28;20024;-67
2021/06/11 08:41:37;;;;;;;18.80;11.73;;;;;;;22.62;49.72;98577.09;5084228;28;20020;-67
2021/06/11 08:44:05;;;;;;;13.20;10.13;;;;;;;22.63;49.90;98573.09;5087270;28;20016;-67
2021/06/11 08:46:32;;;;;;;12.73;9.70;;;;;;;22.66;49.59;98575.16;5088257;28;20032;-67
2021/06/11 08:49:01;;;;;;;18.77;10.40;;;;;;;22.72;49.85;98570.84;5085955;28;20020;-67
2021/06/11 08:51:27;;;;;;;15.30;9.98;;;;;;;22.80;49.80;98569.78;5087980;28;20036;-67
2021/06/11 08:53:53;;;;;;;13.02;10.20;;;;;;;22.86;49.08;98573.06;5087350;28;20573;-67
2021/06/11 08:56:18;;;;;;;15.00;10.30;;;;;;;22.85;48.69;98565.84;5090114;28;20028;-66
2021/06/11 08:58:43;;;;;;;14.75;9.52;;;;;;;22.90;49.04;98562.72;5092566;28;20071;-67
2021/06/11 09:01:09;;;;;;;15.77;9.55;;;;;;;22.94;48.75;98565.59;5088197;28;20046;-66
2021/06/11 09:03:45;;;;;;;16.83;8.50;;;;;;;23.05;48.16;98560.94;5087838;28;20140;-66
2021/06/11 09:06:14;;;;;;;15.70;10.77;;;;;;;23.13;47.98;98559.88;5090818;28;20123;-67
2021/06/11 09:08:48;;;;;;;11.57;9.07;;;;;;;23.17;47.88;98559.94;5090004;28;20095;-67
2021/06/11 09:11:14;;;;;;;13.18;9.70;;;;;;;23.24;48.15;98557.25;5090496;28;20020;-67
2021/06/11 09:13:41;;;;;;;12.30;9.07;;;;;;;23.35;47.99;98557.41;5091534;28;20036;-68
2021/06/11 09:16:13;;;;;;;12.65;9.05;;;;;;;23.43;47.69;98561.09;5089868;28;20028;-67
2021/06/11 09:18:42;;;;;;;12.68;9.02;;;;;;;23.56;47.78;98559.66;5089781;28;20453;-67
2021/06/11 09:21:43;;;;;;;;;;;;;;;23.64;47.52;98555.72;5090010;28;20046;-69
2021/06/11 09:26:40;;;;;;;17.95;9.18;;;;;;;23.77;46.28;98561.09;5076017;28;20024;-66
2021/06/11 09:29:18;;;;;;;12.90;8.38;;;;;;;23.79;46.03;98559.53;5089605;28;20038;-67
2021/06/11 09:31:43;;;;;;;12.50;8.85;;;;;;;23.79;45.67;98561.50;5085953;28;20107;-66
2021/06/11 09:34:20;;;;;;;12.90;8.70;;;;;;;23.84;46.14;98560.38;5088510;28;20134;-67
2021/06/11 09:37:05;;;;;;;11.13;8.32;;;;;;;23.90;44.74;98558.81;5089206;28;20034;-68
2021/06/11 09:39:53;;;;;;;10.45;8.10;;;;;;;23.89;45.48;98563.63;5090483;28;20381;-66
2021/06/11 09:42:21;;;;;;;10.90;8.10;;;;;;;23.92;45.08;98550.84;5089213;28;20067;-67
2021/06/11 09:45:01;;;;;;;18.42;8.73;;;;;;;23.97;45.29;98555.31;5088526;28;20066;-67
2021/06/11 09:47:34;;;;;;;11.70;8.57;;;;;;;24.02;44.38;98546.59;5088957;28;20503;-67
2021/06/11 09:50:06;;;;;;;10.25;8.02;;;;;;;23.99;44.16;98559.34;5088420;28;20035;-67
2021/06/11 09:52:35;;;;;;;14.10;8.13;;;;;;;23.98;44.02;98551.31;5087805;28;20500;-67
2021/06/11 09:55:05;;;;;;;11.02;7.85;;;;;;;23.97;42.67;98539.28;5089082;28;20080;-66
2021/06/11 09:57:33;;;;;;;11.57;7.80;;;;;;;23.99;43.78;98542.53;5088680;28;20059;-66
2021/06/11 09:59:58;;;;;;;11.43;7.80;;;;;;;24.07;43.81;98543.41;5087582;28;20028;-66
2021/06/11 10:02:24;;;;;;;11.00;8.30;;;;;;;24.16;43.57;98548.72;5089374;28;20390;-68
2021/06/11 10:04:50;;;;;;;19.40;10.07;;;;;;;24.15;43.29;98536.69;5089769;28;20384;-67
2021/06/11 10:07:15;;;;;;;9.48;8.00;;;;;;;24.16;43.07;98534.72;5088790;28;20025;-68
2021/06/11 10:09:41;;;;;;;15.02;8.18;;;;;;;24.14;43.29;98540.69;5089269;28;20035;-67
2021/06/11 10:12:08;;;;;;;11.55;7.97;;;;;;;24.11;43.59;98546.25;5087066;28;20031;-68
2021/06/11 10:14:34;;;;;;;9.90;8.20;;;;;;;24.08;43.12;98540.25;5087303;28;20028;-68
2021/06/11 10:17:00;;;;;;;11.95;8.65;;;;;;;24.05;43.13;98543.81;5087553;28;20181;-67
2021/06/11 10:19:25;;;;;;;12.73;8.13;;;;;;;23.98;43.30;98526.09;5089072;28;20129;-70
2021/06/11 10:21:51;;;;;;;13.25;8.20;;;;;;;23.94;43.18;98529.69;5088183;28;20020;-68
2021/06/11 10:24:20;;;;;;;14.18;8.18;;;;;;;23.93;43.60;98527.25;5087232;28;20499;-68
2021/06/11 10:26:45;;;;;;;10.63;7.63;;;;;;;23.87;43.13;98512.78;5090352;28;20035;-68
2021/06/11 10:29:16;;;;;;;12.00;8.35;;;;;;;23.82;43.17;98507.53;5070230;28;20028;-68
2021/06/11 10:31:42;;;;;;;11.45;8.05;;;;;;;23.80;43.44;98515.50;5087499;28;20023;-68
2021/06/11 10:34:08;;;;;;;10.07;8.43;;;;;;;23.81;43.59;98514.31;5091587;28;20078;-68
2021/06/11 10:36:40;;;;;;;12.23;7.65;;;;;;;23.84;43.53;98510.75;5089348;28;20500;-68
2021/06/11 10:39:12;;;;;;;11.05;7.75;;;;;;;23.89;43.46;98502.00;5088083;28;20062;-68
2021/06/11 10:41:56;;;;;;;9.32;7.85;;;;;;;23.94;43.26;98504.47;5085648;28;20077;-67
2021/06/11 10:44:40;;;;;;;11.25;7.63;;;;;;;23.99;43.27;98505.34;5086531;28;20024;-68
2021/06/11 10:47:17;;;;;;;10.13;7.88;;;;;;;24.01;43.30;98495.34;5086339;28;20688;-67
2021/06/11 10:49:55;;;;;;;12.60;7.53;;;;;;;24.13;43.33;98499.06;5086765;28;20107;-68
2021/06/11 10:52:34;;;;;;;9.88;7.40;;;;;;;24.21;43.58;98492.31;5086185;28;20549;-67
2021/06/11 10:55:18;;;;;;;9.82;8.05;;;;;;;24.30;43.52;98503.19;5086234;28;20387;-68
2021/06/11 10:57:53;;;;;;;9.23;7.15;;;;;;;24.41;42.53;98494.88;5068930;28;20444;-67
2021/06/11 11:00:27;;;;;;;11.38;7.82;;;;;;;24.43;42.38;98500.88;5088197;28;20029;-68
2021/06/11 11:02:53;;;;;;;11.32;7.38;;;;;;;24.43;42.54;98492.47;5069777;28;20046;-68
2021/06/11 11:05:44;;;;;;;8.95;7.15;;;;;;;24.49;42.30;98491.72;5088282;28;20032;-68
2021/06/11 11:08:11;;;;;;;11.07;7.30;;;;;;;24.45;41.90;98490.91;5086046;28;20038;-68
2021/06/11 11:10:39;;;;;;;10.57;7.70;;;;;;;24.44;41.93;98485.69;5104926;28;20077;-68
2021/06/11 11:13:28;;;;;;;10.45;7.53;;;;;;;24.43;41.93;98486.88;5087339;28;20027;-68
2021/06/11 11:15:55;;;;;;;11.40;7.63;;;;;;;24.38;41.74;98485.25;5088189;28;20035;-68
2021/06/11 11:18:40;;;;;;;10.80;7.38;;;;;;;24.31;41.07;98490.78;5087410;28;20028;-67
2021/06/11 11:21:29;;;;;;;8.98;6.68;;;;;;;24.21;40.84;98483.91;5073432;28;20117;-68
2021/06/11 11:24:05;;;;;;;8.50;7.18;;;;;;;24.11;41.21;98484.63;5090495;28;20028;-67
2021/06/11 11:26:47;;;;;;;7.45;6.50;;;;;;;24.01;41.45;98486.16;5092182;28;20055;-67
2021/06/11 11:29:15;;;;;;;9.38;7.60;;;;;;;23.94;41.68;98493.25;5090660;28;20036;-67